sensor_id;sensor_type;location;lat;lon;timestamp;P1;durP1;ratioP1;P2;durP2;ratioP2
22144;SDS011;11238;48.730;11.566;2023-03-23T00:02:26;6.88;;;4.00;;
22144;SDS011;11238;48.730;11.566;2023-03-23T00:04:53;8.30;;;4.07;;
22144;SDS011;11238;48.730;11.566;2023-03-23T00:07:20;6.63;;;4.03;;
22144;SDS011;11238;48.730;11.566;2023-03-23T00:09:53;8.80;;;4.00;;
22144;SDS011;11238;48.730;11.566;2023-03-23T00:12:41;16.08;;;4.25;;
22144;SDS011;11238;48.730;11.566;2023-03-23T00:15:10;5.82;;;4.03;;
22144;SDS011;11238;48.730;11.566;2023-03-23T00:17:37;8.02;;;4.53;;
22144;SDS011;11238;48.730;11.566;2023-03-23T00:20:06;5.20;;;3.67;;
22144;SDS011;11238;48.730;11.566;2023-03-23T00:22:32;5.72;;;3.70;;
22144;SDS011;11238;48.730;11.566;2023-03-23T00:25:06;9.65;;;3.83;;
22144;SDS011;11238;48.730;11.566;2023-03-23T00:27:33;7.03;;;3.72;;
22144;SDS011;11238;48.730;11.566;2023-03-23T00:30:00;7.65;;;3.90;;
22144;SDS011;11238;48.730;11.566;2023-03-23T00:32:26;7.20;;;3.70;;
22144;SDS011;11238;48.730;11.566;2023-03-23T00:34:56;6.40;;;4.20;;
22144;SDS011;11238;48.730;11.566;2023-03-23T00:37:26;5.65;;;4.47;;
22144;SDS011;11238;48.730;11.566;2023-03-23T00:39:52;6.43;;;3.97;;
22144;SDS011;11238;48.730;11.566;2023-03-23T00:42:22;6.25;;;4.45;;
22144;SDS011;11238;48.730;11.566;2023-03-23T00:44:49;7.80;;;4.05;;
22144;SDS011;11238;48.730;11.566;2023-03-23T00:47:16;8.20;;;4.43;;
22144;SDS011;11238;48.730;11.566;2023-03-23T00:49:42;6.70;;;4.20;;
22144;SDS011;11238;48.730;11.566;2023-03-23T00:52:09;7.75;;;3.85;;
22144;SDS011;11238;48.730;11.566;2023-03-23T00:54:35;8.85;;;4.10;;
22144;SDS011;11238;48.730;11.566;2023-03-23T00:57:03;8.73;;;4.25;;
22144;SDS011;11238;48.730;11.566;2023-03-23T00:59:29;5.35;;;4.28;;
22144;SDS011;11238;48.730;11.566;2023-03-23T01:01:55;6.40;;;4.03;;
22144;SDS011;11238;48.730;11.566;2023-03-23T01:04:43;5.32;;;3.72;;
22144;SDS011;11238;48.730;11.566;2023-03-23T01:07:10;6.43;;;4.03;;
22144;SDS011;11238;48.730;11.566;2023-03-23T01:09:39;8.20;;;3.80;;
22144;SDS011;11238;48.730;11.566;2023-03-23T01:12:05;6.63;;;3.72;;
22144;SDS011;11238;48.730;11.566;2023-03-23T01:14:31;7.50;;;3.42;;
22144;SDS011;11238;48.730;11.566;2023-03-23T01:16:57;6.72;;;3.80;;
22144;SDS011;11238;48.730;11.566;2023-03-23T01:19:23;5.80;;;3.83;;
22144;SDS011;11238;48.730;11.566;2023-03-23T01:21:50;6.15;;;3.70;;
22144;SDS011;11238;48.730;11.566;2023-03-23T01:24:15;6.88;;;3.80;;
22144;SDS011;11238;48.730;11.566;2023-03-23T01:26:41;6.22;;;3.65;;
22144;SDS011;11238;48.730;11.566;2023-03-23T01:29:07;7.38;;;3.90;;
22144;SDS011;11238;48.730;11.566;2023-03-23T01:31:33;4.78;;;3.70;;
22144;SDS011;11238;48.730;11.566;2023-03-23T01:34:02;7.15;;;4.35;;
22144;SDS011;11238;48.730;11.566;2023-03-23T01:36:30;7.68;;;4.00;;
22144;SDS011;11238;48.730;11.566;2023-03-23T01:38:59;6.63;;;4.10;;
22144;SDS011;11238;48.730;11.566;2023-03-23T01:41:29;8.65;;;4.25;;
22144;SDS011;11238;48.730;11.566;2023-03-23T01:44:07;5.10;;;3.50;;
22144;SDS011;11238;48.730;11.566;2023-03-23T01:46:52;4.88;;;3.70;;
22144;SDS011;11238;48.730;11.566;2023-03-23T01:49:29;8.38;;;3.90;;
22144;SDS011;11238;48.730;11.566;2023-03-23T01:52:01;7.43;;;3.85;;
22144;SDS011;11238;48.730;11.566;2023-03-23T01:54:31;5.50;;;3.80;;
22144;SDS011;11238;48.730;11.566;2023-03-23T01:57:17;5.55;;;3.88;;
22144;SDS011;11238;48.730;11.566;2023-03-23T01:59:49;10.80;;;4.05;;
22144;SDS011;11238;48.730;11.566;2023-03-23T02:02:22;8.55;;;3.63;;
22144;SDS011;11238;48.730;11.566;2023-03-23T02:04:51;8.32;;;3.88;;
22144;SDS011;11238;48.730;11.566;2023-03-23T02:07:28;7.78;;;4.38;;
22144;SDS011;11238;48.730;11.566;2023-03-23T02:09:57;6.35;;;3.45;;
22144;SDS011;11238;48.730;11.566;2023-03-23T02:12:26;5.85;;;3.75;;
22144;SDS011;11238;48.730;11.566;2023-03-23T02:14:52;6.32;;;3.40;;
22144;SDS011;11238;48.730;11.566;2023-03-23T02:36:38;4.90;;;3.60;;
22144;SDS011;11238;48.730;11.566;2023-03-23T02:42:23;9.07;;;3.90;;
22144;SDS011;11238;48.730;11.566;2023-03-23T02:44:54;5.15;;;3.72;;
22144;SDS011;11238;48.730;11.566;2023-03-23T02:47:22;5.78;;;4.22;;
22144;SDS011;11238;48.730;11.566;2023-03-23T02:49:52;7.60;;;4.18;;
22144;SDS011;11238;48.730;11.566;2023-03-23T02:52:22;6.13;;;4.55;;
22144;SDS011;11238;48.730;11.566;2023-03-23T02:54:51;6.53;;;4.20;;
22144;SDS011;11238;48.730;11.566;2023-03-23T02:57:22;5.78;;;4.13;;
22144;SDS011;11238;48.730;11.566;2023-03-23T02:59:52;5.88;;;3.95;;
22144;SDS011;11238;48.730;11.566;2023-03-23T03:02:18;5.97;;;3.88;;
22144;SDS011;11238;48.730;11.566;2023-03-23T03:10:35;6.10;;;3.65;;
22144;SDS011;11238;48.730;11.566;2023-03-23T03:13:17;6.32;;;3.97;;
22144;SDS011;11238;48.730;11.566;2023-03-23T03:21:30;7.55;;;4.28;;
22144;SDS011;11238;48.730;11.566;2023-03-23T03:24:01;8.18;;;4.00;;
22144;SDS011;11238;48.730;11.566;2023-03-23T03:26:32;4.97;;;3.90;;
22144;SDS011;11238;48.730;11.566;2023-03-23T03:29:28;5.70;;;4.03;;
22144;SDS011;11238;48.730;11.566;2023-03-23T03:31:57;8.25;;;4.38;;
22144;SDS011;11238;48.730;11.566;2023-03-23T03:34:25;6.47;;;4.65;;
22144;SDS011;11238;48.730;11.566;2023-03-23T03:36:53;6.38;;;4.18;;
22144;SDS011;11238;48.730;11.566;2023-03-23T03:39:24;8.48;;;4.10;;
22144;SDS011;11238;48.730;11.566;2023-03-23T03:41:50;5.30;;;4.13;;
22144;SDS011;11238;48.730;11.566;2023-03-23T03:44:16;5.07;;;4.20;;
22144;SDS011;11238;48.730;11.566;2023-03-23T03:46:42;7.60;;;4.43;;
22144;SDS011;11238;48.730;11.566;2023-03-23T03:49:08;5.07;;;4.30;;
22144;SDS011;11238;48.730;11.566;2023-03-23T03:51:40;5.35;;;3.90;;
22144;SDS011;11238;48.730;11.566;2023-03-23T03:54:12;7.40;;;4.60;;
22144;SDS011;11238;48.730;11.566;2023-03-23T03:56:38;7.07;;;4.30;;
22144;SDS011;11238;48.730;11.566;2023-03-23T03:59:22;10.00;;;4.80;;
22144;SDS011;11238;48.730;11.566;2023-03-23T04:02:11;6.55;;;4.28;;
22144;SDS011;11238;48.730;11.566;2023-03-23T04:04:40;8.63;;;4.43;;
22144;SDS011;11238;48.730;11.566;2023-03-23T04:07:06;6.53;;;4.25;;
22144;SDS011;11238;48.730;11.566;2023-03-23T04:09:37;8.10;;;4.55;;
22144;SDS011;11238;48.730;11.566;2023-03-23T04:12:04;8.55;;;4.45;;
22144;SDS011;11238;48.730;11.566;2023-03-23T04:14:58;6.65;;;3.85;;
22144;SDS011;11238;48.730;11.566;2023-03-23T04:17:32;6.50;;;3.92;;
22144;SDS011;11238;48.730;11.566;2023-03-23T04:19:58;5.35;;;4.10;;
22144;SDS011;11238;48.730;11.566;2023-03-23T04:22:26;7.45;;;3.80;;
22144;SDS011;11238;48.730;11.566;2023-03-23T04:24:58;8.65;;;3.83;;
22144;SDS011;11238;48.730;11.566;2023-03-23T04:27:26;6.47;;;3.65;;
22144;SDS011;11238;48.730;11.566;2023-03-23T04:29:55;4.10;;;3.50;;
22144;SDS011;11238;48.730;11.566;2023-03-23T04:32:52;5.82;;;4.10;;
22144;SDS011;11238;48.730;11.566;2023-03-23T04:35:24;4.68;;;4.00;;
22144;SDS011;11238;48.730;11.566;2023-03-23T04:38:03;9.75;;;4.30;;
22144;SDS011;11238;48.730;11.566;2023-03-23T04:40:30;5.15;;;4.20;;
22144;SDS011;11238;48.730;11.566;2023-03-23T04:43:08;7.38;;;4.50;;
22144;SDS011;11238;48.730;11.566;2023-03-23T04:46:00;5.15;;;4.45;;
22144;SDS011;11238;48.730;11.566;2023-03-23T04:48:30;5.65;;;4.13;;
22144;SDS011;11238;48.730;11.566;2023-03-23T04:51:11;8.38;;;4.50;;
22144;SDS011;11238;48.730;11.566;2023-03-23T04:53:41;5.07;;;3.92;;
22144;SDS011;11238;48.730;11.566;2023-03-23T04:56:07;5.20;;;4.40;;
22144;SDS011;11238;48.730;11.566;2023-03-23T04:58:40;5.90;;;4.50;;
22144;SDS011;11238;48.730;11.566;2023-03-23T05:01:14;6.38;;;4.68;;
22144;SDS011;11238;48.730;11.566;2023-03-23T05:03:50;6.22;;;4.60;;
22144;SDS011;11238;48.730;11.566;2023-03-23T05:06:16;6.20;;;4.28;;
22144;SDS011;11238;48.730;11.566;2023-03-23T05:08:43;6.78;;;5.10;;
22144;SDS011;11238;48.730;11.566;2023-03-23T05:11:10;7.53;;;4.72;;
22144;SDS011;11238;48.730;11.566;2023-03-23T05:13:39;7.97;;;4.63;;
22144;SDS011;11238;48.730;11.566;2023-03-23T05:16:05;5.68;;;4.95;;
22144;SDS011;11238;48.730;11.566;2023-03-23T05:18:34;7.35;;;5.07;;
22144;SDS011;11238;48.730;11.566;2023-03-23T05:21:03;10.02;;;4.90;;
22144;SDS011;11238;48.730;11.566;2023-03-23T05:23:34;6.18;;;4.90;;
22144;SDS011;11238;48.730;11.566;2023-03-23T05:26:10;7.85;;;4.97;;
22144;SDS011;11238;48.730;11.566;2023-03-23T05:28:36;11.18;;;5.88;;
22144;SDS011;11238;48.730;11.566;2023-03-23T05:31:11;8.30;;;6.20;;
22144;SDS011;11238;48.730;11.566;2023-03-23T05:33:38;10.73;;;6.60;;
22144;SDS011;11238;48.730;11.566;2023-03-23T05:36:29;9.02;;;6.68;;
22144;SDS011;11238;48.730;11.566;2023-03-23T05:39:06;7.53;;;5.60;;
22144;SDS011;11238;48.730;11.566;2023-03-23T05:42:03;7.60;;;5.63;;
22144;SDS011;11238;48.730;11.566;2023-03-23T05:44:41;8.50;;;6.70;;
22144;SDS011;11238;48.730;11.566;2023-03-23T05:47:09;8.38;;;6.22;;
22144;SDS011;11238;48.730;11.566;2023-03-23T05:49:37;8.85;;;5.82;;
22144;SDS011;11238;48.730;11.566;2023-03-23T05:52:05;8.13;;;6.07;;
22144;SDS011;11238;48.730;11.566;2023-03-23T05:54:31;9.05;;;6.05;;
22144;SDS011;11238;48.730;11.566;2023-03-23T05:56:57;8.10;;;6.38;;
22144;SDS011;11238;48.730;11.566;2023-03-23T05:59:45;6.60;;;5.32;;
22144;SDS011;11238;48.730;11.566;2023-03-23T06:02:20;9.80;;;6.50;;
22144;SDS011;11238;48.730;11.566;2023-03-23T06:04:46;18.15;;;8.85;;
22144;SDS011;11238;48.730;11.566;2023-03-23T06:07:25;13.70;;;8.15;;
22144;SDS011;11238;48.730;11.566;2023-03-23T06:09:57;13.68;;;8.93;;
22144;SDS011;11238;48.730;11.566;2023-03-23T06:12:44;8.00;;;5.18;;
22144;SDS011;11238;48.730;11.566;2023-03-23T06:15:26;7.20;;;4.70;;
22144;SDS011;11238;48.730;11.566;2023-03-23T06:18:15;7.05;;;4.90;;
22144;SDS011;11238;48.730;11.566;2023-03-23T06:20:57;5.68;;;4.65;;
22144;SDS011;11238;48.730;11.566;2023-03-23T06:23:51;8.18;;;5.40;;
22144;SDS011;11238;48.730;11.566;2023-03-23T06:26:19;9.52;;;5.10;;
22144;SDS011;11238;48.730;11.566;2023-03-23T06:28:51;8.93;;;5.38;;
22144;SDS011;11238;48.730;11.566;2023-03-23T06:31:18;8.07;;;5.40;;
22144;SDS011;11238;48.730;11.566;2023-03-23T06:33:46;9.73;;;4.80;;
22144;SDS011;11238;48.730;11.566;2023-03-23T06:36:24;6.90;;;4.10;;
22144;SDS011;11238;48.730;11.566;2023-03-23T06:39:02;6.70;;;3.90;;
22144;SDS011;11238;48.730;11.566;2023-03-23T06:42:08;10.50;;;5.03;;
22144;SDS011;11238;48.730;11.566;2023-03-23T06:44:42;7.53;;;5.25;;
22144;SDS011;11238;48.730;11.566;2023-03-23T06:47:10;6.60;;;5.57;;
22144;SDS011;11238;48.730;11.566;2023-03-23T06:49:42;6.70;;;4.82;;
22144;SDS011;11238;48.730;11.566;2023-03-23T06:54:53;7.20;;;5.55;;
22144;SDS011;11238;48.730;11.566;2023-03-23T06:57:20;6.45;;;5.07;;
22144;SDS011;11238;48.730;11.566;2023-03-23T06:59:49;12.68;;;5.70;;
22144;SDS011;11238;48.730;11.566;2023-03-23T07:02:15;9.02;;;6.82;;
22144;SDS011;11238;48.730;11.566;2023-03-23T07:04:44;8.85;;;6.13;;
22144;SDS011;11238;48.730;11.566;2023-03-23T07:07:16;6.97;;;5.87;;
22144;SDS011;11238;48.730;11.566;2023-03-23T07:10:04;7.80;;;4.75;;
22144;SDS011;11238;48.730;11.566;2023-03-23T07:12:53;5.82;;;3.72;;
22144;SDS011;11238;48.730;11.566;2023-03-23T07:15:20;6.80;;;3.90;;
22144;SDS011;11238;48.730;11.566;2023-03-23T07:17:49;8.07;;;3.75;;
22144;SDS011;11238;48.730;11.566;2023-03-23T07:20:21;4.35;;;3.20;;
22144;SDS011;11238;48.730;11.566;2023-03-23T07:22:47;4.85;;;3.20;;
22144;SDS011;11238;48.730;11.566;2023-03-23T07:25:23;5.40;;;3.40;;
22144;SDS011;11238;48.730;11.566;2023-03-23T07:27:52;7.32;;;3.70;;
22144;SDS011;11238;48.730;11.566;2023-03-23T07:30:20;5.68;;;3.20;;
22144;SDS011;11238;48.730;11.566;2023-03-23T07:32:45;5.47;;;3.60;;
22144;SDS011;11238;48.730;11.566;2023-03-23T07:35:12;4.57;;;3.40;;
22144;SDS011;11238;48.730;11.566;2023-03-23T07:37:56;3.85;;;3.30;;
22144;SDS011;11238;48.730;11.566;2023-03-23T07:40:23;7.65;;;3.70;;
22144;SDS011;11238;48.730;11.566;2023-03-23T07:42:52;7.13;;;3.75;;
22144;SDS011;11238;48.730;11.566;2023-03-23T07:45:32;5.15;;;3.22;;
22144;SDS011;11238;48.730;11.566;2023-03-23T07:48:20;7.90;;;3.63;;
22144;SDS011;11238;48.730;11.566;2023-03-23T07:50:46;4.32;;;3.40;;
22144;SDS011;11238;48.730;11.566;2023-03-23T07:53:14;4.63;;;3.33;;
22144;SDS011;11238;48.730;11.566;2023-03-23T07:55:43;4.03;;;3.17;;
22144;SDS011;11238;48.730;11.566;2023-03-23T07:58:29;5.13;;;3.28;;
22144;SDS011;11238;48.730;11.566;2023-03-23T08:00:56;10.93;;;3.63;;
22144;SDS011;11238;48.730;11.566;2023-03-23T08:03:26;5.43;;;3.03;;
22144;SDS011;11238;48.730;11.566;2023-03-23T08:06:10;4.88;;;3.47;;
22144;SDS011;11238;48.730;11.566;2023-03-23T08:08:51;5.53;;;3.10;;
22144;SDS011;11238;48.730;11.566;2023-03-23T08:11:52;5.00;;;3.20;;
22144;SDS011;11238;48.730;11.566;2023-03-23T08:14:38;6.75;;;2.90;;
22144;SDS011;11238;48.730;11.566;2023-03-23T08:17:34;10.68;;;2.90;;
22144;SDS011;11238;48.730;11.566;2023-03-23T08:20:20;3.70;;;2.85;;
22144;SDS011;11238;48.730;11.566;2023-03-23T08:23:07;3.10;;;2.80;;
22144;SDS011;11238;48.730;11.566;2023-03-23T08:25:37;4.53;;;2.80;;
22144;SDS011;11238;48.730;11.566;2023-03-23T08:28:20;5.82;;;3.38;;
22144;SDS011;11238;48.730;11.566;2023-03-23T08:30:58;4.10;;;2.90;;
22144;SDS011;11238;48.730;11.566;2023-03-23T08:33:46;4.00;;;2.95;;
22144;SDS011;11238;48.730;11.566;2023-03-23T08:36:27;4.10;;;2.75;;
22144;SDS011;11238;48.730;11.566;2023-03-23T08:39:13;3.38;;;2.55;;
22144;SDS011;11238;48.730;11.566;2023-03-23T08:41:58;5.53;;;2.75;;
22144;SDS011;11238;48.730;11.566;2023-03-23T08:44:51;3.47;;;2.50;;
22144;SDS011;11238;48.730;11.566;2023-03-23T08:47:27;3.28;;;2.58;;
22144;SDS011;11238;48.730;11.566;2023-03-23T08:50:16;4.95;;;2.65;;
22144;SDS011;11238;48.730;11.566;2023-03-23T08:53:00;5.22;;;2.65;;
22144;SDS011;11238;48.730;11.566;2023-03-23T08:55:55;2.97;;;2.35;;
22144;SDS011;11238;48.730;11.566;2023-03-23T08:58:42;3.83;;;2.42;;
22144;SDS011;11238;48.730;11.566;2023-03-23T09:01:20;5.32;;;2.38;;
22144;SDS011;11238;48.730;11.566;2023-03-23T09:04:15;4.05;;;2.50;;
22144;SDS011;11238;48.730;11.566;2023-03-23T09:07:03;3.85;;;2.50;;
22144;SDS011;11238;48.730;11.566;2023-03-23T09:09:30;4.93;;;2.58;;
22144;SDS011;11238;48.730;11.566;2023-03-23T09:11:55;2.92;;;2.40;;
22144;SDS011;11238;48.730;11.566;2023-03-23T09:14:21;4.40;;;2.47;;
22144;SDS011;11238;48.730;11.566;2023-03-23T09:16:47;3.25;;;2.30;;
22144;SDS011;11238;48.730;11.566;2023-03-23T09:19:13;5.18;;;2.50;;
22144;SDS011;11238;48.730;11.566;2023-03-23T09:21:39;4.13;;;2.30;;
22144;SDS011;11238;48.730;11.566;2023-03-23T09:24:06;5.15;;;2.10;;
22144;SDS011;11238;48.730;11.566;2023-03-23T09:26:31;3.00;;;2.35;;
22144;SDS011;11238;48.730;11.566;2023-03-23T09:28:58;5.45;;;2.50;;
22144;SDS011;11238;48.730;11.566;2023-03-23T09:31:24;3.88;;;2.30;;
22144;SDS011;11238;48.730;11.566;2023-03-23T09:33:52;5.38;;;2.53;;
22144;SDS011;11238;48.730;11.566;2023-03-23T09:36:21;4.43;;;2.47;;
22144;SDS011;11238;48.730;11.566;2023-03-23T09:38:47;3.60;;;2.25;;
22144;SDS011;11238;48.730;11.566;2023-03-23T09:47:20;4.45;;;2.35;;
22144;SDS011;11238;48.730;11.566;2023-03-23T09:49:55;6.55;;;2.17;;
22144;SDS011;11238;48.730;11.566;2023-03-23T09:52:39;3.33;;;2.40;;
22144;SDS011;11238;48.730;11.566;2023-03-23T09:55:15;3.83;;;2.20;;
22144;SDS011;11238;48.730;11.566;2023-03-23T09:57:46;3.13;;;2.22;;
22144;SDS011;11238;48.730;11.566;2023-03-23T10:00:33;4.32;;;2.70;;
22144;SDS011;11238;48.730;11.566;2023-03-23T10:03:13;3.33;;;2.60;;
22144;SDS011;11238;48.730;11.566;2023-03-23T10:05:49;6.30;;;2.73;;
22144;SDS011;11238;48.730;11.566;2023-03-23T10:08:20;4.70;;;2.60;;
22144;SDS011;11238;48.730;11.566;2023-03-23T10:19:28;5.65;;;2.42;;
22144;SDS011;11238;48.730;11.566;2023-03-23T10:22:02;3.83;;;2.55;;
22144;SDS011;11238;48.730;11.566;2023-03-23T10:24:35;5.20;;;2.50;;
22144;SDS011;11238;48.730;11.566;2023-03-23T10:29:42;3.40;;;2.40;;
22144;SDS011;11238;48.730;11.566;2023-03-23T10:32:17;4.30;;;2.53;;
22144;SDS011;11238;48.730;11.566;2023-03-23T10:35:13;3.08;;;2.40;;
22144;SDS011;11238;48.730;11.566;2023-03-23T10:37:47;7.25;;;3.00;;
22144;SDS011;11238;48.730;11.566;2023-03-23T10:40:19;6.63;;;2.67;;
22144;SDS011;11238;48.730;11.566;2023-03-23T10:42:49;2.95;;;1.70;;
22144;SDS011;11238;48.730;11.566;2023-03-23T10:45:23;3.50;;;1.98;;
22144;SDS011;11238;48.730;11.566;2023-03-23T10:50:34;5.10;;;1.60;;
22144;SDS011;11238;48.730;11.566;2023-03-23T10:53:03;4.05;;;2.15;;
22144;SDS011;11238;48.730;11.566;2023-03-23T10:55:41;4.60;;;1.90;;
22144;SDS011;11238;48.730;11.566;2023-03-23T10:58:10;4.40;;;2.10;;
22144;SDS011;11238;48.730;11.566;2023-03-23T11:00:42;3.28;;;1.60;;
22144;SDS011;11238;48.730;11.566;2023-03-23T11:05:51;3.05;;;1.80;;
22144;SDS011;11238;48.730;11.566;2023-03-23T11:08:21;3.15;;;1.80;;
22144;SDS011;11238;48.730;11.566;2023-03-23T11:10:50;4.82;;;1.88;;
22144;SDS011;11238;48.730;11.566;2023-03-23T11:13:17;5.10;;;1.60;;
22144;SDS011;11238;48.730;11.566;2023-03-23T11:15:45;3.58;;;1.77;;
22144;SDS011;11238;48.730;11.566;2023-03-23T11:18:17;5.40;;;1.75;;
22144;SDS011;11238;48.730;11.566;2023-03-23T11:20:51;2.05;;;1.50;;
22144;SDS011;11238;48.730;11.566;2023-03-23T11:23:28;2.25;;;1.75;;
22144;SDS011;11238;48.730;11.566;2023-03-23T11:28:46;2.67;;;1.42;;
22144;SDS011;11238;48.730;11.566;2023-03-23T11:31:23;3.65;;;1.60;;
22144;SDS011;11238;48.730;11.566;2023-03-23T11:36:20;4.50;;;1.52;;
22144;SDS011;11238;48.730;11.566;2023-03-23T11:38:52;2.78;;;1.55;;
22144;SDS011;11238;48.730;11.566;2023-03-23T11:41:42;4.53;;;1.73;;
22144;SDS011;11238;48.730;11.566;2023-03-23T11:44:09;2.00;;;1.40;;
22144;SDS011;11238;48.730;11.566;2023-03-23T11:49:35;1.90;;;1.40;;
22144;SDS011;11238;48.730;11.566;2023-03-23T11:54:50;1.98;;;1.30;;
22144;SDS011;11238;48.730;11.566;2023-03-23T11:57:22;4.80;;;1.48;;
22144;SDS011;11238;48.730;11.566;2023-03-23T11:59:49;1.58;;;1.48;;
22144;SDS011;11238;48.730;11.566;2023-03-23T12:07:27;1.90;;;1.40;;
22144;SDS011;11238;48.730;11.566;2023-03-23T12:10:10;3.28;;;1.80;;
22144;SDS011;11238;48.730;11.566;2023-03-23T12:15:22;5.50;;;1.80;;
22144;SDS011;11238;48.730;11.566;2023-03-23T12:18:00;2.92;;;1.70;;
22144;SDS011;11238;48.730;11.566;2023-03-23T12:32:36;1.80;;;1.27;;
22144;SDS011;11238;48.730;11.566;2023-03-23T12:49:50;3.13;;;1.80;;
22144;SDS011;11238;48.730;11.566;2023-03-23T12:52:29;5.47;;;1.90;;
22144;SDS011;11238;48.730;11.566;2023-03-23T12:55:02;2.53;;;1.80;;
22144;SDS011;11238;48.730;11.566;2023-03-23T12:57:43;3.97;;;1.85;;
22144;SDS011;11238;48.730;11.566;2023-03-23T13:00:19;3.30;;;2.00;;
22144;SDS011;11238;48.730;11.566;2023-03-23T13:05:50;3.70;;;2.05;;
22144;SDS011;11238;48.730;11.566;2023-03-23T13:08:40;7.15;;;1.92;;
22144;SDS011;11238;48.730;11.566;2023-03-23T13:11:20;7.50;;;1.80;;
22144;SDS011;11238;48.730;11.566;2023-03-23T13:13:58;6.97;;;2.08;;
22144;SDS011;11238;48.730;11.566;2023-03-23T13:17:04;2.50;;;1.75;;
22144;SDS011;11238;48.730;11.566;2023-03-23T13:20:08;4.30;;;1.80;;
22144;SDS011;11238;48.730;11.566;2023-03-23T13:23:28;4.38;;;1.90;;
22144;SDS011;11238;48.730;11.566;2023-03-23T13:26:03;6.15;;;1.98;;
22144;SDS011;11238;48.730;11.566;2023-03-23T13:31:22;2.40;;;1.88;;
22144;SDS011;11238;48.730;11.566;2023-03-23T13:33:53;4.45;;;1.70;;
22144;SDS011;11238;48.730;11.566;2023-03-23T13:36:28;3.75;;;2.05;;
22144;SDS011;11238;48.730;11.566;2023-03-23T13:39:01;4.68;;;2.00;;
22144;SDS011;11238;48.730;11.566;2023-03-23T13:41:30;4.45;;;1.80;;
22144;SDS011;11238;48.730;11.566;2023-03-23T13:44:15;2.72;;;1.83;;
22144;SDS011;11238;48.730;11.566;2023-03-23T13:46:53;3.92;;;2.00;;
22144;SDS011;11238;48.730;11.566;2023-03-23T13:49:21;2.55;;;1.88;;
22144;SDS011;11238;48.730;11.566;2023-03-23T13:51:52;4.25;;;2.13;;
22144;SDS011;11238;48.730;11.566;2023-03-23T13:54:41;5.50;;;2.10;;
22144;SDS011;11238;48.730;11.566;2023-03-23T14:00:44;2.92;;;2.08;;
22144;SDS011;11238;48.730;11.566;2023-03-23T14:03:04;3.30;;;2.10;;
22144;SDS011;11238;48.730;11.566;2023-03-23T14:05:41;2.95;;;1.98;;
22144;SDS011;11238;48.730;11.566;2023-03-23T14:10:59;3.22;;;2.05;;
22144;SDS011;11238;48.730;11.566;2023-03-23T14:13:33;4.05;;;2.20;;
22144;SDS011;11238;48.730;11.566;2023-03-23T14:16:20;2.65;;;2.30;;
22144;SDS011;11238;48.730;11.566;2023-03-23T14:18:52;3.33;;;2.30;;
22144;SDS011;11238;48.730;11.566;2023-03-23T14:21:34;4.63;;;2.17;;
22144;SDS011;11238;48.730;11.566;2023-03-23T14:27:13;2.70;;;2.00;;
22144;SDS011;11238;48.730;11.566;2023-03-23T14:29:42;3.40;;;2.28;;
22144;SDS011;11238;48.730;11.566;2023-03-23T14:32:16;3.65;;;2.25;;
22144;SDS011;11238;48.730;11.566;2023-03-23T14:34:48;3.63;;;2.40;;
22144;SDS011;11238;48.730;11.566;2023-03-23T14:37:16;4.55;;;2.10;;
22144;SDS011;11238;48.730;11.566;2023-03-23T14:39:45;4.22;;;2.20;;
22144;SDS011;11238;48.730;11.566;2023-03-23T14:42:14;2.03;;;1.83;;
22144;SDS011;11238;48.730;11.566;2023-03-23T14:44:43;4.22;;;2.08;;
22144;SDS011;11238;48.730;11.566;2023-03-23T14:47:16;2.85;;;2.28;;
22144;SDS011;11238;48.730;11.566;2023-03-23T14:49:56;3.28;;;1.90;;
22144;SDS011;11238;48.730;11.566;2023-03-23T14:52:27;4.40;;;1.92;;
22144;SDS011;11238;48.730;11.566;2023-03-23T14:54:54;4.72;;;2.25;;
22144;SDS011;11238;48.730;11.566;2023-03-23T14:57:33;2.58;;;1.65;;
22144;SDS011;11238;48.730;11.566;2023-03-23T14:59:58;3.05;;;2.03;;
22144;SDS011;11238;48.730;11.566;2023-03-23T15:02:27;3.25;;;2.10;;
22144;SDS011;11238;48.730;11.566;2023-03-23T15:04:59;2.85;;;2.05;;
22144;SDS011;11238;48.730;11.566;2023-03-23T15:07:33;2.97;;;2.20;;
22144;SDS011;11238;48.730;11.566;2023-03-23T15:10:01;3.13;;;2.00;;
22144;SDS011;11238;48.730;11.566;2023-03-23T15:12:30;3.58;;;2.40;;
22144;SDS011;11238;48.730;11.566;2023-03-23T15:15:01;3.13;;;1.92;;
22144;SDS011;11238;48.730;11.566;2023-03-23T15:17:30;4.55;;;2.00;;
22144;SDS011;11238;48.730;11.566;2023-03-23T15:20:10;5.10;;;2.67;;
22144;SDS011;11238;48.730;11.566;2023-03-23T15:22:47;2.85;;;2.17;;
22144;SDS011;11238;48.730;11.566;2023-03-23T15:27:55;4.07;;;2.17;;
22144;SDS011;11238;48.730;11.566;2023-03-23T15:33:05;5.28;;;1.95;;
22144;SDS011;11238;48.730;11.566;2023-03-23T15:35:36;2.95;;;1.90;;
22144;SDS011;11238;48.730;11.566;2023-03-23T15:38:23;4.05;;;1.98;;
22144;SDS011;11238;48.730;11.566;2023-03-23T15:40:52;5.85;;;2.17;;
22144;SDS011;11238;48.730;11.566;2023-03-23T15:43:21;2.35;;;1.83;;
22144;SDS011;11238;48.730;11.566;2023-03-23T15:45:57;3.08;;;1.90;;
22144;SDS011;11238;48.730;11.566;2023-03-23T15:48:49;3.03;;;1.80;;
22144;SDS011;11238;48.730;11.566;2023-03-23T15:51:25;2.70;;;1.60;;
22144;SDS011;11238;48.730;11.566;2023-03-23T15:53:53;3.40;;;1.85;;
22144;SDS011;11238;48.730;11.566;2023-03-23T15:56:20;4.32;;;1.70;;
22144;SDS011;11238;48.730;11.566;2023-03-23T15:58:47;6.15;;;1.70;;
22144;SDS011;11238;48.730;11.566;2023-03-23T16:01:18;2.75;;;1.65;;
22144;SDS011;11238;48.730;11.566;2023-03-23T16:06:27;3.60;;;1.60;;
22144;SDS011;11238;48.730;11.566;2023-03-23T16:08:56;1.73;;;1.38;;
22144;SDS011;11238;48.730;11.566;2023-03-23T16:11:23;3.53;;;1.73;;
22144;SDS011;11238;48.730;11.566;2023-03-23T16:13:51;4.35;;;1.60;;
22144;SDS011;11238;48.730;11.566;2023-03-23T16:16:18;3.53;;;1.70;;
22144;SDS011;11238;48.730;11.566;2023-03-23T16:19:07;6.00;;;1.70;;
22144;SDS011;11238;48.730;11.566;2023-03-23T16:21:35;2.67;;;1.80;;
22144;SDS011;11238;48.730;11.566;2023-03-23T16:24:01;2.10;;;1.80;;
22144;SDS011;11238;48.730;11.566;2023-03-23T16:26:27;5.97;;;1.50;;
22144;SDS011;11238;48.730;11.566;2023-03-23T16:28:53;4.28;;;1.60;;
22144;SDS011;11238;48.730;11.566;2023-03-23T16:31:19;1.75;;;1.30;;
22144;SDS011;11238;48.730;11.566;2023-03-23T16:33:45;2.45;;;1.58;;
22144;SDS011;11238;48.730;11.566;2023-03-23T16:36:11;2.63;;;1.80;;
22144;SDS011;11238;48.730;11.566;2023-03-23T16:38:39;2.88;;;1.67;;
22144;SDS011;11238;48.730;11.566;2023-03-23T16:41:05;4.78;;;1.80;;
22144;SDS011;11238;48.730;11.566;2023-03-23T16:43:35;2.13;;;1.88;;
22144;SDS011;11238;48.730;11.566;2023-03-23T16:46:01;2.88;;;1.70;;
22144;SDS011;11238;48.730;11.566;2023-03-23T16:48:26;6.25;;;1.70;;
22144;SDS011;11238;48.730;11.566;2023-03-23T16:50:52;3.03;;;1.70;;
22144;SDS011;11238;48.730;11.566;2023-03-23T16:53:22;2.13;;;1.75;;
22144;SDS011;11238;48.730;11.566;2023-03-23T16:55:50;3.42;;;1.70;;
22144;SDS011;11238;48.730;11.566;2023-03-23T16:58:17;4.18;;;1.70;;
22144;SDS011;11238;48.730;11.566;2023-03-23T17:00:47;3.10;;;1.70;;
22144;SDS011;11238;48.730;11.566;2023-03-23T17:03:16;2.83;;;1.58;;
22144;SDS011;11238;48.730;11.566;2023-03-23T17:05:42;2.85;;;1.70;;
22144;SDS011;11238;48.730;11.566;2023-03-23T17:08:09;3.88;;;2.00;;
22144;SDS011;11238;48.730;11.566;2023-03-23T17:10:36;4.97;;;1.95;;
22144;SDS011;11238;48.730;11.566;2023-03-23T17:13:03;3.53;;;1.70;;
22144;SDS011;11238;48.730;11.566;2023-03-23T17:15:29;2.50;;;1.50;;
22144;SDS011;11238;48.730;11.566;2023-03-23T17:17:55;3.45;;;1.70;;